Time;durP1;ratioP1;P1;durP2;ratioP2;P2;SDS_P1;SDS_P2;PMS_P1;PMS_P2;Temp;Humidity;BMP_temperature;BMP_pressure;BME280_temperature;BME280_humidity;BME280_pressure;Samples;Min_cycle;Max_cycle;Signal;HPM_P1;HPM_P2
2023/12/30 00:02:07;;;;;;;49.97;35.45;;;14.60;80.90;;;;;;5093335;28;20089;-80
2023/12/30 00:04:33;;;;;;;46.45;34.00;;;14.60;80.80;;;;;;5092971;28;20437;-79
2023/12/30 00:06:59;;;;;;;46.45;34.85;;;14.60;80.60;;;;;;5092618;28;20093;-80
2023/12/30 00:09:24;;;;;;;50.30;36.42;;;14.60;80.70;;;;;;5092592;28;20039;-80
2023/12/30 00:11:50;;;;;;;43.88;34.65;;;14.60;80.70;;;;;;5092964;28;20059;-81
2023/12/30 00:14:16;;;;;;;45.33;34.35;;;14.60;80.70;;;;;;5092909;28;20058;-78
2023/12/30 00:16:41;;;;;;;46.88;34.53;;;14.60;80.90;;;;;;5092602;28;20445;-78
2023/12/30 00:19:08;;;;;;;46.10;34.85;;;14.60;80.80;;;;;;5096354;28;20044;-81
2023/12/30 00:21:34;;;;;;;46.80;34.25;;;14.60;80.60;;;;;;5097000;28;20047;-78
2023/12/30 00:23:59;;;;;;;43.05;32.67;;;14.60;80.50;;;;;;5096723;28;20032;-78
2023/12/30 00:26:26;;;;;;;45.92;33.45;;;14.50;80.20;;;;;;5096969;28;20028;-79
2023/12/30 00:28:53;;;;;;;43.33;32.97;;;14.60;80.40;;;;;;5096968;28;20028;-77
2023/12/30 00:31:27;;;;;;;40.58;31.90;;;14.60;80.30;;;;;;5097179;28;20040;-79
2023/12/30 00:33:58;;;;;;;45.90;31.70;;;14.50;80.10;;;;;;5097204;28;20039;-79
2023/12/30 00:36:24;;;;;;;43.85;31.67;;;14.50;80.70;;;;;;5096781;28;20093;-78
2023/12/30 00:38:54;;;;;;;46.85;31.58;;;14.60;80.20;;;;;;5096701;28;20028;-78
2023/12/30 00:41:23;;;;;;;42.58;31.75;;;14.60;80.30;;;;;;5095261;28;20349;-79
2023/12/30 00:43:49;;;;;;;45.03;32.05;;;14.60;80.50;;;;;;5096433;28;20044;-78
2023/12/30 00:46:16;;;;;;;38.67;29.50;;;14.60;80.30;;;;;;5096791;28;20033;-80
2023/12/30 00:48:42;;;;;;;40.45;29.65;;;14.60;80.20;;;;;;5096358;28;20032;-79
2023/12/30 00:51:07;;;;;;;35.22;27.45;;;14.60;80.20;;;;;;5096087;28;20101;-79
2023/12/30 00:53:33;;;;;;;41.40;28.95;;;14.60;80.20;;;;;;5096344;28;20119;-80
2023/12/30 00:55:59;;;;;;;42.03;28.88;;;14.60;80.10;;;;;;5096587;28;20047;-80
2023/12/30 00:58:24;;;;;;;38.92;28.05;;;14.60;80.10;;;;;;5096168;28;20471;-80
2023/12/30 01:00:51;;;;;;;36.22;27.48;;;14.50;80.10;;;;;;5097183;28;20040;-80
2023/12/30 01:03:17;;;;;;;35.55;27.55;;;14.40;80.10;;;;;;5096735;28;20028;-78
2023/12/30 01:05:46;;;;;;;37.78;27.20;;;14.40;80.40;;;;;;5097639;28;20032;-81
2023/12/30 01:08:12;;;;;;;36.20;26.13;;;14.50;80.70;;;;;;5096947;28;20024;-78
2023/12/30 01:10:38;;;;;;;35.33;27.08;;;14.50;80.30;;;;;;5095891;28;20040;-80
2023/12/30 01:13:08;;;;;;;34.22;25.35;;;14.50;80.10;;;;;;5095856;28;20035;-77
2023/12/30 01:15:35;;;;;;;33.78;25.33;;;14.50;80.30;;;;;;5095776;28;20058;-78
2023/12/30 01:18:02;;;;;;;32.53;23.70;;;14.50;80.10;;;;;;5095524;28;20330;-79
2023/12/30 01:20:28;;;;;;;33.13;23.95;;;14.50;80.10;;;;;;5095758;28;20184;-78
2023/12/30 01:22:53;;;;;;;32.50;23.35;;;14.50;80.20;;;;;;5094919;28;20174;-77
2023/12/30 01:25:19;;;;;;;31.17;24.40;;;14.50;80.10;;;;;;5096676;28;20035;-78
2023/12/30 01:27:45;;;;;;;33.28;23.25;;;14.50;80.10;;;;;;5094464;28;20056;-78
2023/12/30 01:30:11;;;;;;;33.97;23.90;;;14.60;80.40;;;;;;5094363;28;20134;-78
2023/12/30 01:32:36;;;;;;;33.45;23.27;;;14.60;80.30;;;;;;5095492;28;20480;-78
2023/12/30 01:35:03;;;;;;;33.65;23.88;;;14.60;80.30;;;;;;5095378;28;20028;-77
2023/12/30 01:37:29;;;;;;;35.35;23.65;;;14.50;80.60;;;;;;5095655;28;20039;-79
2023/12/30 01:39:55;;;;;;;30.83;22.73;;;14.50;80.60;;;;;;5093871;28;20115;-77
2023/12/30 01:42:20;;;;;;;30.63;24.00;;;14.50;80.70;;;;;;5095490;28;20516;-78
2023/12/30 01:44:46;;;;;;;31.63;23.67;;;14.50;80.70;;;;;;5095000;28;20051;-79
2023/12/30 01:47:12;;;;;;;33.10;22.90;;;14.50;80.70;;;;;;5093845;28;20036;-78
2023/12/30 01:49:38;;;;;;;32.08;23.23;;;14.40;80.50;;;;;;5094901;28;20028;-79
2023/12/30 01:52:05;;;;;;;34.30;23.17;;;14.40;80.80;;;;;;5094929;28;20103;-79
2023/12/30 01:54:31;;;;;;;31.15;24.10;;;14.40;80.70;;;;;;5095087;28;20036;-79
2023/12/30 01:56:59;;;;;;;31.33;23.38;;;14.40;80.50;;;;;;5095260;28;20454;-78
2023/12/30 01:59:26;;;;;;;29.60;22.67;;;14.40;80.80;;;;;;5095111;28;20031;-78
2023/12/30 02:01:55;;;;;;;33.45;23.52;;;14.40;80.90;;;;;;5094739;28;20036;-78
2023/12/30 02:04:22;;;;;;;33.58;23.20;;;14.40;81.00;;;;;;5094808;28;20024;-77
2023/12/30 02:06:48;;;;;;;32.13;22.50;;;14.30;80.90;;;;;;5094781;28;20098;-78
2023/12/30 02:09:14;;;;;;;32.45;22.02;;;14.20;80.90;;;;;;5094914;28;20024;-78
2023/12/30 02:11:39;;;;;;;31.25;23.40;;;14.30;81.20;;;;;;5094362;28;20097;-78
2023/12/30 02:14:22;;;;;;;29.63;22.10;;;14.30;81.10;;;;;;5094789;28;20111;-77
2023/12/30 02:16:48;;;;;;;32.55;23.45;;;14.30;81.00;;;;;;5094913;28;20040;-79
2023/12/30 02:19:13;;;;;;;30.33;21.55;;;14.30;81.10;;;;;;5096975;28;20031;-78
2023/12/30 02:21:39;;;;;;;35.47;23.33;;;14.30;81.30;;;;;;5097094;28;20050;-79
2023/12/30 02:24:05;;;;;;;31.75;22.23;;;14.30;81.20;;;;;;5093693;28;20028;-77
2023/12/30 02:26:30;;;;;;;31.02;23.33;;;14.30;81.70;;;;;;5094296;28;20444;-79
2023/12/30 02:28:56;;;;;;;31.10;22.95;;;14.30;80.90;;;;;;5094697;28;20154;-79
2023/12/30 02:31:22;;;;;;;30.17;23.17;;;14.30;81.20;;;;;;5094573;28;20498;-79
2023/12/30 02:33:47;;;;;;;30.65;23.73;;;14.20;81.00;;;;;;5094321;28;20449;-78
2023/12/30 02:36:13;;;;;;;31.50;23.33;;;14.20;81.20;;;;;;5094135;28;20039;-78
2023/12/30 02:38:39;;;;;;;28.50;22.42;;;14.20;81.20;;;;;;5093974;28;20024;-78
2023/12/30 02:41:05;;;;;;;31.75;23.63;;;14.20;81.20;;;;;;5093721;28;20040;-79
2023/12/30 02:43:36;;;;;;;33.42;23.73;;;14.20;81.10;;;;;;5093729;28;20044;-79
2023/12/30 02:46:02;;;;;;;29.38;23.98;;;14.20;81.00;;;;;;5093848;28;20138;-77
2023/12/30 02:48:28;;;;;;;34.90;25.15;;;14.10;81.10;;;;;;5093740;28;20531;-77
2023/12/30 02:50:53;;;;;;;27.92;23.35;;;14.10;81.20;;;;;;5093542;28;20097;-78
2023/12/30 02:53:19;;;;;;;31.00;24.38;;;14.10;81.20;;;;;;5093953;28;20494;-78
2023/12/30 02:55:44;;;;;;;28.90;23.67;;;14.10;81.30;;;;;;5093949;28;20055;-78
2023/12/30 02:58:10;;;;;;;36.05;23.45;;;14.10;81.20;;;;;;5093849;28;20029;-79
2023/12/30 03:00:36;;;;;;;27.60;22.48;;;14.10;81.20;;;;;;5093900;28;20032;-78
2023/12/30 03:03:03;;;;;;;31.38;23.63;;;14.20;81.20;;;;;;5094609;28;20028;-78
2023/12/30 03:05:28;;;;;;;30.90;24.60;;;14.20;81.30;;;;;;5092494;28;20483;-78
2023/12/30 03:07:57;;;;;;;31.05;24.45;;;14.20;81.00;;;;;;5093913;28;20035;-77
2023/12/30 03:10:23;;;;;;;29.90;23.73;;;14.10;80.90;;;;;;5094901;28;20498;-78
2023/12/30 03:12:48;;;;;;;33.60;24.55;;;14.10;81.10;;;;;;5094413;28;20039;-78
2023/12/30 03:15:14;;;;;;;31.02;24.15;;;14.20;81.30;;;;;;5093752;28;20063;-77
2023/12/30 03:17:40;;;;;;;28.83;23.00;;;14.10;81.20;;;;;;5092469;28;20040;-77
2023/12/30 03:20:09;;;;;;;30.77;23.80;;;14.10;81.20;;;;;;5093600;28;20067;-79
2023/12/30 03:22:35;;;;;;;31.45;21.85;;;14.10;81.60;;;;;;5094059;28;20468;-78
2023/12/30 03:25:01;;;;;;;29.80;23.15;;;14.10;81.60;;;;;;5093831;28;20036;-78
2023/12/30 03:27:26;;;;;;;27.50;22.15;;;14.10;81.50;;;;;;5093535;28;20399;-79
2023/12/30 03:29:52;;;;;;;29.92;22.60;;;14.10;81.50;;;;;;5093294;28;20040;-78
2023/12/30 03:32:18;;;;;;;31.92;22.38;;;14.10;81.20;;;;;;5093525;28;20446;-79
2023/12/30 03:34:44;;;;;;;31.45;22.77;;;14.20;81.10;;;;;;5093626;28;20028;-79
2023/12/30 03:37:09;;;;;;;31.08;22.35;;;14.20;80.90;;;;;;5093241;28;20040;-78
2023/12/30 03:39:35;;;;;;;28.98;22.45;;;14.20;80.90;;;;;;5093325;28;20047;-79
2023/12/30 03:42:01;;;;;;;29.17;21.80;;;14.20;80.80;;;;;;5091732;28;20024;-78
2023/12/30 03:44:27;;;;;;;25.88;20.88;;;14.20;80.80;;;;;;5093159;28;20043;-77
2023/12/30 03:46:52;;;;;;;30.58;21.75;;;14.20;80.70;;;;;;5093728;28;20105;-78
2023/12/30 03:49:18;;;;;;;30.33;22.75;;;14.20;80.70;;;;;;5093199;28;20032;-79
2023/12/30 03:51:43;;;;;;;29.88;22.20;;;14.20;80.60;;;;;;5093008;28;20415;-77
2023/12/30 03:54:09;;;;;;;29.38;22.38;;;14.20;80.70;;;;;;5092708;28;20036;-79
2023/12/30 03:56:39;;;;;;;27.30;21.58;;;14.10;80.80;;;;;;5093345;28;20032;-78
2023/12/30 03:59:04;;;;;;;24.67;20.50;;;14.10;80.70;;;;;;5093699;28;20036;-79
2023/12/30 04:01:30;;;;;;;26.55;21.58;;;14.00;80.80;;;;;;5093138;28;20444;-78
2023/12/30 04:03:56;;;;;;;28.90;20.15;;;14.00;80.80;;;;;;5092742;28;20119;-81
2023/12/30 04:06:21;;;;;;;26.38;20.27;;;14.00;80.70;;;;;;5092573;28;20441;-79
2023/12/30 04:08:47;;;;;;;28.63;20.63;;;14.00;80.90;;;;;;5092864;28;20032;-78
2023/12/30 04:11:13;;;;;;;23.90;19.63;;;13.90;80.70;;;;;;5093243;28;20507;-78
2023/12/30 04:13:38;;;;;;;26.88;19.92;;;13.90;80.80;;;;;;5092670;28;20101;-78
2023/12/30 04:16:05;;;;;;;23.38;18.15;;;13.90;80.90;;;;;;5092579;28;20039;-77
2023/12/30 04:18:30;;;;;;;27.92;19.35;;;13.90;80.90;;;;;;5092637;28;20039;-77
2023/12/30 04:20:56;;;;;;;26.65;19.50;;;13.90;80.90;;;;;;5092741;28;20048;-78
2023/12/30 04:23:24;;;;;;;21.63;17.92;;;13.90;80.80;;;;;;5092343;28;20103;-78
2023/12/30 04:25:49;;;;;;;21.90;17.90;;;13.90;80.90;;;;;;5092533;28;20031;-78
2023/12/30 04:28:15;;;;;;;23.92;18.60;;;13.90;80.90;;;;;;5092522;28;20028;-79
2023/12/30 04:30:42;;;;;;;23.00;18.17;;;13.90;80.50;;;;;;5092694;28;20094;-78
2023/12/30 04:33:07;;;;;;;23.58;17.95;;;13.90;80.50;;;;;;5092709;28;20035;-78
2023/12/30 04:35:33;;;;;;;22.83;17.67;;;13.90;80.70;;;;;;5092213;28;20040;-79
2023/12/30 04:37:59;;;;;;;25.98;18.90;;;14.00;80.60;;;;;;5092742;28;20028;-77
2023/12/30 04:40:24;;;;;;;22.60;17.95;;;13.90;80.70;;;;;;5090772;28;20115;-79
2023/12/30 04:42:50;;;;;;;27.67;17.02;;;13.90;80.50;;;;;;5092384;28;20024;-78
2023/12/30 04:45:16;;;;;;;23.55;18.00;;;13.80;80.50;;;;;;5092468;28;20432;-79
2023/12/30 04:47:41;;;;;;;22.65;17.08;;;13.80;80.70;;;;;;5092255;28;20036;-78
2023/12/30 04:50:08;;;;;;;24.33;17.00;;;13.80;80.90;;;;;;5092229;28;20036;-79
2023/12/30 04:52:33;;;;;;;22.20;16.95;;;13.80;80.70;;;;;;5092207;28;20378;-77
2023/12/30 04:54:59;;;;;;;22.23;17.40;;;13.80;80.80;;;;;;5092282;28;20028;-77
2023/12/30 04:57:25;;;;;;;24.70;16.95;;;13.80;81.10;;;;;;5092295;28;20035;-77
2023/12/30 04:59:50;;;;;;;24.02;17.40;;;13.80;80.80;;;;;;5092314;28;20024;-79
2023/12/30 05:02:16;;;;;;;21.67;17.33;;;13.80;80.80;;;;;;5091988;28;20464;-78
2023/12/30 05:04:43;;;;;;;23.33;16.75;;;13.80;80.70;;;;;;5094390;28;20498;-79
2023/12/30 05:07:09;;;;;;;22.25;17.38;;;13.80;80.90;;;;;;5094542;28;20036;-77
2023/12/30 05:09:38;;;;;;;25.40;17.23;;;13.80;81.20;;;;;;5094406;28;20042;-80
2023/12/30 05:12:04;;;;;;;21.67;16.90;;;13.80;81.50;;;;;;5095906;28;20085;-79
2023/12/30 05:14:29;;;;;;;23.63;16.67;;;13.90;80.90;;;;;;5095628;28;20028;-77
2023/12/30 05:16:55;;;;;;;21.50;16.80;;;13.80;80.60;;;;;;5095838;28;20040;-78
2023/12/30 05:19:21;;;;;;;22.13;16.63;;;13.80;80.50;;;;;;5096083;28;20032;-79
2023/12/30 05:21:53;;;;;;;24.45;17.02;;;13.80;81.00;;;;;;5095685;28;20048;-80
2023/12/30 05:24:19;;;;;;;27.27;18.08;;;13.80;80.80;;;;;;5100282;28;20399;-78
2023/12/30 05:26:45;;;;;;;21.52;17.48;;;13.80;80.80;;;;;;5095360;28;20032;-78
2023/12/30 05:29:10;;;;;;;22.15;17.48;;;13.80;80.90;;;;;;5094051;28;20564;-78
2023/12/30 05:31:36;;;;;;;24.25;16.98;;;13.80;81.00;;;;;;5093816;28;20051;-79
2023/12/30 05:34:02;;;;;;;20.70;16.55;;;13.80;81.00;;;;;;5097722;28;20506;-79
2023/12/30 05:36:28;;;;;;;23.30;18.05;;;13.80;81.10;;;;;;5095561;28;20040;-79
2023/12/30 05:38:53;;;;;;;20.83;15.55;;;13.80;81.20;;;;;;5095591;28;20028;-80
2023/12/30 05:41:19;;;;;;;20.98;16.55;;;13.80;81.00;;;;;;5095352;28;20071;-78
2023/12/30 05:43:45;;;;;;;24.13;16.88;;;13.80;81.00;;;;;;5093804;28;20047;-78
2023/12/30 05:46:17;;;;;;;20.23;15.85;;;13.80;81.00;;;;;;5096034;28;20024;-77
2023/12/30 05:48:43;;;;;;;21.58;16.33;;;13.80;80.80;;;;;;5095308;28;20576;-78
2023/12/30 05:51:09;;;;;;;20.40;16.33;;;13.80;80.90;;;;;;5094895;28;20040;-79
2023/12/30 05:53:35;;;;;;;20.63;16.45;;;13.80;81.10;;;;;;5095525;28;20043;-77
2023/12/30 05:56:01;;;;;;;20.63;16.42;;;13.80;81.20;;;;;;5095200;28;20024;-80
2023/12/30 05:58:28;;;;;;;20.42;16.10;;;13.70;81.10;;;;;;5095427;28;20032;-79
2023/12/30 06:00:54;;;;;;;21.50;15.70;;;13.70;81.20;;;;;;5095376;28;20587;-78
2023/12/30 06:03:20;;;;;;;20.65;16.58;;;13.70;81.20;;;;;;5095985;28;20474;-78
2023/12/30 06:05:46;;;;;;;23.13;17.25;;;13.70;81.30;;;;;;5094888;28;20507;-78
2023/12/30 06:08:11;;;;;;;20.35;16.17;;;13.80;81.20;;;;;;5095600;28;20028;-78
2023/12/30 06:10:37;;;;;;;19.80;16.35;;;13.80;81.30;;;;;;5095053;28;20550;-78
2023/12/30 06:13:03;;;;;;;20.95;15.45;;;13.80;81.30;;;;;;5094636;28;20064;-79
2023/12/30 06:15:29;;;;;;;23.25;16.83;;;13.80;81.30;;;;;;5094093;28;20093;-78
2023/12/30 06:17:55;;;;;;;20.90;15.80;;;13.80;81.20;;;;;;5094489;28;20103;-80
2023/12/30 06:20:21;;;;;;;20.45;15.88;;;13.80;81.10;;;;;;5094648;28;20032;-79
2023/12/30 06:22:47;;;;;;;20.30;14.63;;;13.80;80.90;;;;;;5095237;28;20025;-78
2023/12/30 06:25:12;;;;;;;24.73;15.18;;;13.70;81.00;;;;;;5095266;28;20032;-79
2023/12/30 06:27:38;;;;;;;23.35;15.60;;;13.80;81.20;;;;;;5095153;28;20039;-78
2023/12/30 06:30:05;;;;;;;23.90;15.20;;;13.80;81.10;;;;;;5095213;28;20036;-81
2023/12/30 06:32:30;;;;;;;19.95;13.65;;;13.80;81.30;;;;;;5094859;28;20396;-78
2023/12/30 06:34:56;;;;;;;18.15;13.52;;;13.80;81.10;;;;;;5093970;28;20032;-78
2023/12/30 06:37:22;;;;;;;19.35;13.20;;;13.80;81.20;;;;;;5094086;28;20464;-79
2023/12/30 06:39:47;;;;;;;20.35;12.77;;;13.80;81.00;;;;;;5094480;28;20028;-79
2023/12/30 06:42:13;;;;;;;19.67;13.25;;;13.80;81.00;;;;;;5094938;28;20372;-76
2023/12/30 06:44:39;;;;;;;18.38;12.55;;;13.80;81.10;;;;;;5094519;28;20051;-77
2023/12/30 06:47:05;;;;;;;19.60;13.45;;;13.80;81.10;;;;;;5093928;28;20137;-80
2023/12/30 06:49:31;;;;;;;18.92;11.65;;;13.80;81.10;;;;;;5094843;28;20032;-79
2023/12/30 06:51:56;;;;;;;18.58;12.45;;;13.80;81.10;;;;;;5099512;28;20407;-77
2023/12/30 06:54:22;;;;;;;15.77;12.05;;;13.80;81.00;;;;;;5098318;28;20123;-79
2023/12/30 06:56:49;;;;;;;19.10;12.38;;;13.70;80.90;;;;;;5094166;28;20039;-79
2023/12/30 06:59:16;;;;;;;18.38;12.77;;;13.70;81.00;;;;;;5094193;28;20039;-78
2023/12/30 07:01:41;;;;;;;16.83;11.55;;;13.70;81.30;;;;;;5094388;28;20090;-80
2023/12/30 07:04:07;;;;;;;20.33;13.02;;;13.70;81.30;;;;;;5094672;28;20560;-78
2023/12/30 07:06:33;;;;;;;18.20;12.77;;;13.60;81.30;;;;;;5094501;28;20150;-79
2023/12/30 07:08:58;;;;;;;16.40;12.30;;;13.60;81.40;;;;;;5094275;28;20067;-78
2023/12/30 07:11:24;;;;;;;18.15;12.23;;;13.60;81.30;;;;;;5096645;28;20138;-79
2023/12/30 07:13:50;;;;;;;18.13;12.85;;;13.60;81.40;;;;;;5093812;28;20399;-78
2023/12/30 07:16:16;;;;;;;19.55;13.05;;;13.70;81.50;;;;;;5093487;28;20044;-78
2023/12/30 07:18:41;;;;;;;19.60;12.48;;;13.70;81.40;;;;;;5093153;28;20537;-78
2023/12/30 07:21:07;;;;;;;18.48;12.07;;;13.70;81.20;;;;;;5094226;28;20024;-80
2023/12/30 07:23:33;;;;;;;18.15;12.07;;;13.70;81.30;;;;;;5095604;28;20031;-78
2023/12/30 07:25:59;;;;;;;19.20;11.55;;;13.70;81.10;;;;;;5094227;28;20032;-79
2023/12/30 07:28:24;;;;;;;18.98;12.00;;;13.70;81.20;;;;;;5092587;28;20111;-79
2023/12/30 07:30:50;;;;;;;14.65;11.15;;;13.70;81.50;;;;;;5092856;28;20044;-79
2023/12/30 07:33:16;;;;;;;17.27;12.32;;;13.80;81.60;;;;;;5092699;28;20036;-78
2023/12/30 07:35:42;;;;;;;15.85;12.30;;;13.80;81.40;;;;;;5092956;28;20043;-80
2023/12/30 07:38:08;;;;;;;17.85;12.93;;;13.80;81.50;;;;;;5093256;28;20076;-78
2023/12/30 07:40:34;;;;;;;21.42;12.82;;;13.70;81.40;;;;;;5093081;28;20103;-80
2023/12/30 07:42:59;;;;;;;17.35;12.93;;;13.70;81.50;;;;;;5093186;28;20044;-81
2023/12/30 07:45:25;;;;;;;15.40;12.20;;;13.60;81.50;;;;;;5093179;28;20040;-78
2023/12/30 07:47:51;;;;;;;16.23;12.00;;;13.60;81.30;;;;;;5092833;28;20480;-79
2023/12/30 07:50:17;;;;;;;19.48;12.40;;;13.60;81.50;;;;;;5092733;28;20496;-79
2023/12/30 07:52:42;;;;;;;18.20;12.63;;;13.70;81.50;;;;;;5093054;28;20035;-79
2023/12/30 07:55:08;;;;;;;20.00;13.57;;;13.70;81.40;;;;;;5092798;28;20093;-79
2023/12/30 07:57:34;;;;;;;20.88;13.50;;;13.80;81.50;;;;;;5092919;28;20060;-78
2023/12/30 08:00:00;;;;;;;16.00;13.20;;;13.70;81.40;;;;;;5094328;28;20060;-79
2023/12/30 08:02:28;;;;;;;16.13;12.95;;;13.80;81.40;;;;;;5098794;28;20066;-79
2023/12/30 08:04:56;;;;;;;19.65;13.70;;;13.90;81.30;;;;;;5092910;28;20382;-80
2023/12/30 08:07:21;;;;;;;21.23;14.05;;;14.00;81.30;;;;;;5093720;28;20043;-79
2023/12/30 08:09:47;;;;;;;17.27;14.13;;;14.00;81.10;;;;;;5092573;28;20021;-80
2023/12/30 08:12:13;;;;;;;19.27;13.23;;;14.10;80.90;;;;;;5092608;28;20454;-78
2023/12/30 08:14:38;;;;;;;18.45;13.65;;;14.20;80.80;;;;;;5093031;28;20050;-81
2023/12/30 08:17:04;;;;;;;18.83;13.45;;;14.20;80.90;;;;;;5091550;28;20043;-79
2023/12/30 08:19:30;;;;;;;19.02;14.27;;;14.30;80.70;;;;;;5092483;28;20035;-80
2023/12/30 08:21:55;;;;;;;18.77;13.90;;;14.40;80.70;;;;;;5092326;28;20594;-79
2023/12/30 08:24:21;;;;;;;20.38;14.15;;;14.40;80.60;;;;;;5092096;28;20505;-80
2023/12/30 08:26:47;;;;;;;19.38;14.05;;;14.40;80.40;;;;;;5092409;28;20036;-79
2023/12/30 08:29:14;;;;;;;20.73;13.82;;;14.50;80.30;;;;;;5092254;28;20028;-78
2023/12/30 08:31:46;;;;;;;21.17;13.80;;;14.50;80.10;;;;;;5092273;28;20398;-78
2023/12/30 08:34:12;;;;;;;20.50;14.48;;;14.60;80.40;;;;;;5092489;28;20024;-80
2023/12/30 08:36:38;;;;;;;18.08;14.98;;;14.70;80.00;;;;;;5091009;28;20029;-78
2023/12/30 08:39:04;;;;;;;21.85;13.30;;;14.80;79.90;;;;;;5093547;28;20085;-81
2023/12/30 08:41:29;;;;;;;16.60;13.25;;;14.80;80.00;;;;;;5094985;28;20032;-80
2023/12/30 08:43:58;;;;;;;18.02;14.02;;;14.80;79.70;;;;;;5095397;28;20130;-80
2023/12/30 08:46:23;;;;;;;19.67;13.48;;;14.90;79.90;;;;;;5094848;28;20067;-79
2023/12/30 08:48:49;;;;;;;17.42;13.65;;;14.90;79.60;;;;;;5096083;28;20072;-78
2023/12/30 08:51:15;;;;;;;18.33;14.07;;;14.80;79.50;;;;;;5095748;28;20510;-79
2023/12/30 08:53:41;;;;;;;20.15;13.65;;;14.90;79.30;;;;;;5096220;28;20460;-79
2023/12/30 08:56:07;;;;;;;18.90;15.00;;;14.90;79.50;;;;;;5095967;28;20043;-80
2023/12/30 08:58:33;;;;;;;18.52;13.02;;;15.00;79.60;;;;;;5097045;28;20025;-79
2023/12/30 09:00:59;;;;;;;18.15;13.95;;;15.00;79.40;;;;;;5096644;28;20455;-79
2023/12/30 09:03:24;;;;;;;19.27;14.18;;;15.10;79.40;;;;;;5095920;28;20028;-79
2023/12/30 09:05:50;;;;;;;18.65;14.32;;;15.10;79.30;;;;;;5095307;28;20060;-79
2023/12/30 09:08:16;;;;;;;22.23;14.60;;;15.00;79.20;;;;;;5095895;28;20032;-79
2023/12/30 09:10:42;;;;;;;20.80;14.55;;;15.10;79.40;;;;;;5096108;28;20072;-80
2023/12/30 09:13:08;;;;;;;19.67;14.05;;;15.10;79.30;;;;;;5095444;28;20035;-80
2023/12/30 09:15:34;;;;;;;21.40;15.25;;;15.10;79.20;;;;;;5095770;28;20115;-78
2023/12/30 09:17:59;;;;;;;20.90;14.75;;;15.20;79.30;;;;;;5095854;28;20428;-80
2023/12/30 09:20:25;;;;;;;18.23;13.45;;;15.30;79.40;;;;;;5095578;28;20040;-80
2023/12/30 09:22:51;;;;;;;19.75;15.40;;;15.30;79.40;;;;;;5095867;28;20028;-78
2023/12/30 09:25:18;;;;;;;26.98;19.05;;;15.30;79.00;;;;;;5095829;28;20441;-80
2023/12/30 09:27:44;;;;;;;26.40;17.70;;;15.40;79.20;;;;;;5096522;28;20097;-80
2023/12/30 09:30:10;;;;;;;26.73;16.83;;;15.40;79.10;;;;;;5097229;28;20048;-80
2023/12/30 09:32:36;;;;;;;24.60;15.98;;;15.40;79.00;;;;;;5096343;28;20028;-81
2023/12/30 09:35:03;;;;;;;22.85;17.05;;;15.40;79.00;;;;;;5098522;28;20039;-80
2023/12/30 09:37:29;;;;;;;23.83;16.02;;;15.40;79.10;;;;;;5096815;28;20073;-79
2023/12/30 09:39:55;;;;;;;20.13;17.00;;;15.40;79.00;;;;;;5095795;28;20170;-81
2023/12/30 09:42:20;;;;;;;21.65;15.93;;;15.40;78.90;;;;;;5093700;28;20068;-79
2023/12/30 09:44:47;;;;;;;24.10;17.42;;;15.50;79.10;;;;;;5094687;28;20211;-79
2023/12/30 09:47:13;;;;;;;21.63;16.42;;;15.50;79.00;;;;;;5093835;28;20101;-81
2023/12/30 09:49:40;;;;;;;24.77;16.73;;;15.50;79.00;;;;;;5094890;28;20047;-80
2023/12/30 09:52:06;;;;;;;19.85;15.63;;;15.50;79.00;;;;;;5094445;28;20120;-81
2023/12/30 09:54:36;;;;;;;26.30;15.68;;;15.60;79.00;;;;;;5094829;28;20036;-80
2023/12/30 09:57:05;;;;;;;19.42;15.73;;;15.60;78.90;;;;;;5093881;28;20028;-79
2023/12/30 09:59:35;;;;;;;23.38;17.83;;;15.60;79.00;;;;;;5094751;28;20115;-80
2023/12/30 10:02:03;;;;;;;24.85;15.88;;;15.70;78.70;;;;;;5095467;28;20433;-79
2023/12/30 10:04:29;;;;;;;25.90;17.05;;;15.70;78.70;;;;;;5095360;28;20047;-78
2023/12/30 10:06:56;;;;;;;24.58;17.00;;;15.80;78.70;;;;;;5095642;28;20033;-79
2023/12/30 10:09:22;;;;;;;23.95;15.60;;;15.80;78.50;;;;;;5095526;28;20124;-78
2023/12/30 10:11:49;;;;;;;19.92;15.88;;;15.80;78.40;;;;;;5095414;28;20047;-80
2023/12/30 10:14:15;;;;;;;25.42;16.15;;;15.80;78.40;;;;;;5094864;28;20111;-79
2023/12/30 10:16:41;;;;;;;25.17;16.30;;;15.90;78.40;;;;;;5094672;28;20036;-80
2023/12/30 10:19:13;;;;;;;30.80;16.50;;;16.00;78.40;;;;;;5094728;28;20043;-80
2023/12/30 10:21:39;;;;;;;20.80;16.02;;;16.00;78.20;;;;;;5096682;28;20024;-81
2023/12/30 10:24:06;;;;;;;21.15;16.42;;;16.00;78.00;;;;;;5094787;28;20085;-80
2023/12/30 10:26:33;;;;;;;23.50;15.90;;;16.00;78.10;;;;;;5094998;28;20020;-78
2023/12/30 10:29:00;;;;;;;23.08;16.08;;;16.00;78.20;;;;;;5094220;28;20058;-79
2023/12/30 10:31:26;;;;;;;21.20;16.00;;;16.10;78.30;;;;;;5094231;28;20148;-80
2023/12/30 10:33:53;;;;;;;20.70;15.98;;;16.20;78.20;;;;;;5094683;28;20036;-79
2023/12/30 10:36:19;;;;;;;21.65;15.20;;;16.20;78.10;;;;;;5094627;28;20032;-79
2023/12/30 10:38:45;;;;;;;21.55;15.98;;;16.30;78.10;;;;;;5094518;28;20032;-77
2023/12/30 10:41:12;;;;;;;22.10;16.40;;;16.30;78.00;;;;;;5094211;28;20036;-80
2023/12/30 10:43:38;;;;;;;91.55;62.45;;;16.30;77.90;;;;;;5094233;28;20131;-79
2023/12/30 10:46:11;;;;;;;36.13;27.23;;;16.30;77.90;;;;;;5094081;28;20032;-79
2023/12/30 10:48:51;;;;;;;23.20;17.42;;;16.30;77.80;;;;;;5095975;28;20131;-80
2023/12/30 10:51:25;;;;;;;24.13;16.42;;;16.40;77.80;;;;;;5095318;28;20036;-79
2023/12/30 10:54:05;;;;;;;22.55;15.80;;;16.40;78.00;;;;;;5095585;28;20051;-80
2023/12/30 10:56:39;;;;;;;27.63;21.60;;;16.50;78.00;;;;;;5094651;28;20070;-81
2023/12/30 10:59:07;;;;;;;23.52;15.90;;;16.50;77.80;;;;;;5093781;28;20032;-80
2023/12/30 11:01:34;;;;;;;28.23;15.63;;;16.60;77.70;;;;;;5093256;28;20036;-80
2023/12/30 11:04:11;;;;;;;19.25;14.80;;;16.60;77.60;;;;;;5093532;28;20031;-81
2023/12/30 11:06:46;;;;;;;22.10;15.68;;;16.60;77.50;;;;;;5093572;28;20389;-80
2023/12/30 11:09:15;;;;;;;21.65;14.02;;;16.70;77.40;;;;;;5093129;28;20085;-79
2023/12/30 11:11:51;;;;;;;20.58;14.13;;;16.70;77.30;;;;;;5093322;28;20407;-80
2023/12/30 11:14:17;;;;;;;21.70;15.18;;;16.80;77.50;;;;;;5093259;28;20036;-81
2023/12/30 11:16:43;;;;;;;22.90;15.30;;;16.80;77.50;;;;;;5094391;28;20115;-80
2023/12/30 11:19:09;;;;;;;22.05;15.60;;;16.80;77.40;;;;;;5094133;28;20459;-80
2023/12/30 11:21:46;;;;;;;24.13;16.88;;;16.90;77.40;;;;;;5093621;28;20058;-78
2023/12/30 11:24:15;;;;;;;21.40;16.33;;;17.00;77.20;;;;;;5093158;28;20112;-78
2023/12/30 11:26:42;;;;;;;26.85;16.73;;;17.00;77.20;;;;;;5092214;28;20032;-80
2023/12/30 11:29:13;;;;;;;25.25;18.08;;;17.00;77.10;;;;;;5093294;28;20040;-81
2023/12/30 11:31:44;;;;;;;24.25;16.45;;;17.00;77.20;;;;;;5093196;28;20114;-78
2023/12/30 11:34:10;;;;;;;24.20;17.17;;;17.10;77.30;;;;;;5093148;28;20048;-81
2023/12/30 11:36:36;;;;;;;26.73;17.17;;;17.10;77.20;;;;;;5092799;28;20376;-79
2023/12/30 11:39:03;;;;;;;23.70;16.02;;;17.20;77.20;;;;;;5093658;28;20039;-79
2023/12/30 11:41:31;;;;;;;28.70;17.13;;;17.20;77.00;;;;;;5093058;28;20038;-80
2023/12/30 11:44:02;;;;;;;27.60;18.33;;;17.30;77.00;;;;;;5093662;28;20060;-78
2023/12/30 11:46:29;;;;;;;22.33;18.08;;;17.40;76.90;;;;;;5093081;28;20039;-81
2023/12/30 11:48:58;;;;;;;22.77;17.00;;;17.40;76.80;;;;;;5092858;28;20372;-81
2023/12/30 11:51:24;;;;;;;27.20;18.70;;;17.40;76.60;;;;;;5093013;28;20051;-80
2023/12/30 11:53:50;;;;;;;25.58;17.33;;;17.40;77.30;;;;;;5093413;28;20036;-80
2023/12/30 11:56:17;;;;;;;23.20;16.48;;;17.40;76.60;;;;;;5091326;28;20227;-80
2023/12/30 11:58:44;;;;;;;22.35;17.30;;;17.40;76.80;;;;;;5092322;28;20122;-81
2023/12/30 12:01:10;;;;;;;29.42;16.85;;;17.40;76.70;;;;;;5092147;28;20032;-80
2023/12/30 12:03:36;;;;;;;24.98;17.38;;;17.40;76.60;;;;;;5093066;28;20036;-80
2023/12/30 12:06:02;;;;;;;25.17;15.88;;;17.50;76.70;;;;;;5092791;28;20028;-80
2023/12/30 12:08:29;;;;;;;22.95;15.85;;;17.50;76.60;;;;;;5093309;28;20024;-78
2023/12/30 12:10:56;;;;;;;30.08;24.48;;;17.60;76.70;;;;;;5093916;28;20079;-79
2023/12/30 12:13:26;;;;;;;25.42;17.90;;;17.50;76.80;;;;;;5094038;28;20384;-79
2023/12/30 12:15:53;;;;;;;24.88;18.92;;;17.50;77.00;;;;;;5092800;28;20036;-79
2023/12/30 12:18:22;;;;;;;26.48;18.50;;;17.50;77.20;;;;;;5092595;28;20382;-80
2023/12/30 12:20:49;;;;;;;23.10;17.65;;;17.40;77.20;;;;;;5092932;28;20040;-80
2023/12/30 12:23:16;;;;;;;21.77;13.60;;;17.50;77.20;;;;;;5092484;28;20024;-81
2023/12/30 12:25:43;;;;;;;15.18;11.15;;;17.60;77.00;;;;;;5092305;28;20036;-79